This is the latest recevied weather packets stored in our database for station/object DB0MOD. If no packets are shown the sender has not sent any weather packets the latest 10 day(s).
| Time | Temp. | Humidity | Pressure | Rain* | Wind** | Luminosity | Snow |
|---|---|---|---|---|---|---|---|
| 1778167737 | 17.22° C | 34% | 1013.3 hPa | 0 mm | - | - | - |
| 1778167437 | 16.11° C | 29% | 1013.3 hPa | 0 mm | - | - | - |
| 1778167137 | 15.56° C | 27% | 1013.2 hPa | 0 mm | - | - | - |
| 1778166837 | 15.56° C | 26% | 1013.2 hPa | 0 mm | - | - | - |
| 1778166537 | 15.56° C | 24% | 1013.2 hPa | 0 mm | - | - | - |
| 1778166237 | 15.56° C | 21% | 1013.2 hPa | 0 mm | - | - | - |
| 1778165937 | 15.56° C | 21% | 1013 hPa | 0 mm | - | - | - |
| 1778165637 | 15° C | 20% | 1012.9 hPa | 0 mm | - | - | - |
| 1778165337 | 15° C | 20% | 1013 hPa | 0 mm | - | - | - |
| 1778165037 | 14.44° C | 15% | 1013 hPa | 0 mm | - | - | - |
| 1778164737 | 14.44° C | 18% | 1012.9 hPa | 0 mm | - | - | - |
| 1778164437 | 14.44° C | 20% | 1013 hPa | 0 mm | - | - | - |
| 1778163537 | 15.56° C | 26% | 1013 hPa | 0 mm | - | - | - |
| 1778163237 | 15.56° C | 20% | 1013 hPa | 0 mm | - | - | - |
| 1778162937 | 15.56° C | 18% | 1013 hPa | 0 mm | - | - | - |
| 1778162637 | 15.56° C | 24% | 1013 hPa | 0 mm | - | - | - |
| 1778162337 | 15.56° C | 24% | 1012.9 hPa | 0 mm | - | - | - |
| 1778162038 | 15.56° C | 24% | 1013.1 hPa | 0 mm | - | - | - |
| 1778161737 | 15° C | 22% | 1013.2 hPa | 0 mm | - | - | - |
| 1778161437 | 15° C | 25% | 1013 hPa | 0 mm | - | - | - |
| 1778160837 | 15.56° C | 28% | 1013.2 hPa | 0 mm | - | - | - |
| 1778160537 | 15.56° C | 36% | 1013 hPa | 0 mm | - | - | - |
| 1778160237 | 15° C | 37% | 1013.1 hPa | 0 mm | - | - | - |
| 1778159937 | 14.44° C | 33% | 1013 hPa | 0 mm | - | - | - |
| 1778159637 | 14.44° C | 36% | 1013.1 hPa | 0 mm | - | - | - |
* Rain latest hour (hover to see other rain measurements)
** Current wind speed in m/s (hover to see current wind gust speed)